Main page
METAR-TAF:

METAR-TAF

Airports :

Pemba Airport

Pemba, Mozambique

latitude: 12-59S, longitude: 040-32E, elevation: 101 m

Current weather observation

The report was made 24 minutes ago, at 05:00 UTC
Wind 11 kt from the South/Southwest
Temperature 22°C
Humidity 100%
Pressure 1021 hPa
Visibility 10 km or more
Few clouds at a height of 2000 ft

METAR: FQPB 210500Z 21011KT 9999 FEW020 22/22 Q1021

Time: 07:24 (05:24 UTC)

Forecast

The report was made 7 hours and 24 minutes ago, at 22:00 UTC
Forecast valid from 21 at 00 UTC to 22 at 00 UTC
Wind 8 kt from the Southwest
Visibility 10 km or more
Scattered clouds at a height of 2000 ft
Becoming
from 21 at 11 UTC to 21 at 13 UTC
Wind 12 kt from the South/Southeast

TAF: FQPB 202200Z 2100/2200 23008KT 9999 SCT020 TX28/2113Z TN21/2102Z BECMG 2111/2113 16012KT

Weather observations and forecasts of more than 4000 airports (METAR and TAF reports).

The available stations are represented by yellow and red dots on the map.

Hover mouse over dot to see the name of the station.

Then click to see weather observations and forecasts.

To change the map : click on the green buttons with a black cross to zoom in, on the green button with a dash to zoom out, or on the green arrows for adjacent maps.


METAR-TAF: